sensor_id;sensor_type;location;lat;lon;timestamp;pressure;altitude;pressure_sealevel;temperature;humidity
56272;BME280;42177;48.914;18.160;2022-10-16T00:04:35;989;;;15.9;82.8
56272;BME280;42177;48.914;18.160;2022-10-16T00:09:35;989;;;15.9;82.8
56272;BME280;42177;48.914;18.160;2022-10-16T00:14:35;988.9;;;16.1;82.2
56272;BME280;42177;48.914;18.160;2022-10-16T00:19:35;988.9;;;16.1;82.2
56272;BME280;42177;48.914;18.160;2022-10-16T00:24:36;988.9;;;16;82.5
56272;BME280;42177;48.914;18.160;2022-10-16T00:29:35;988.9;;;16;82.5
56272;BME280;42177;48.914;18.160;2022-10-16T00:34:35;989.1;;;16;81.8
56272;BME280;42177;48.914;18.160;2022-10-16T00:39:35;989.1;;;16;81.8
56272;BME280;42177;48.914;18.160;2022-10-16T00:44:43;989.2;;;16;82
56272;BME280;42177;48.914;18.160;2022-10-16T00:49:35;989.2;;;16;82
56272;BME280;42177;48.914;18.160;2022-10-16T00:54:35;989.2;;;15.9;84.3
56272;BME280;42177;48.914;18.160;2022-10-16T00:59:35;989.2;;;15.9;84.3
56272;BME280;42177;48.914;18.160;2022-10-16T01:04:35;989.3;;;16;83.4
56272;BME280;42177;48.914;18.160;2022-10-16T01:09:36;989.3;;;16;83.4
56272;BME280;42177;48.914;18.160;2022-10-16T01:14:37;989.2;;;15.9;82.9
56272;BME280;42177;48.914;18.160;2022-10-16T01:19:38;989.2;;;15.9;82.9
56272;BME280;42177;48.914;18.160;2022-10-16T01:24:37;989.2;;;16;81.9
56272;BME280;42177;48.914;18.160;2022-10-16T01:29:36;989.2;;;16;81.9
56272;BME280;42177;48.914;18.160;2022-10-16T01:34:35;989.2;;;15.9;81.7
56272;BME280;42177;48.914;18.160;2022-10-16T01:39:35;989.2;;;15.9;81.7
56272;BME280;42177;48.914;18.160;2022-10-16T01:44:35;989;;;15.9;82.2
56272;BME280;42177;48.914;18.160;2022-10-16T01:49:35;989;;;15.9;82.2
56272;BME280;42177;48.914;18.160;2022-10-16T01:54:35;989.1;;;15.5;83.8
56272;BME280;42177;48.914;18.160;2022-10-16T01:59:35;989.1;;;15.5;83.8
56272;BME280;42177;48.914;18.160;2022-10-16T02:04:36;989.1;;;15.7;82.8
56272;BME280;42177;48.914;18.160;2022-10-16T02:09:35;989.1;;;15.7;82.8
56272;BME280;42177;48.914;18.160;2022-10-16T02:14:35;989.1;;;15.6;82.9
56272;BME280;42177;48.914;18.160;2022-10-16T02:19:35;989.1;;;15.6;82.9
56272;BME280;42177;48.914;18.160;2022-10-16T02:24:36;989.3;;;15.8;82
56272;BME280;42177;48.914;18.160;2022-10-16T02:29:36;989.3;;;15.8;82
56272;BME280;42177;48.914;18.160;2022-10-16T02:34:35;989.4;;;15.6;82.6
56272;BME280;42177;48.914;18.160;2022-10-16T02:39:35;989.4;;;15.6;82.6
56272;BME280;42177;48.914;18.160;2022-10-16T02:44:35;989.5;;;15.6;82.9
56272;BME280;42177;48.914;18.160;2022-10-16T02:49:35;989.5;;;15.6;82.9
56272;BME280;42177;48.914;18.160;2022-10-16T02:54:35;989.7;;;15.4;84
56272;BME280;42177;48.914;18.160;2022-10-16T02:59:35;989.7;;;15.4;84
56272;BME280;42177;48.914;18.160;2022-10-16T03:04:35;989.7;;;15.4;84.1
56272;BME280;42177;48.914;18.160;2022-10-16T03:09:35;989.7;;;15.4;84.1
56272;BME280;42177;48.914;18.160;2022-10-16T03:14:35;989.9;;;15.3;85.8
56272;BME280;42177;48.914;18.160;2022-10-16T03:19:35;989.9;;;15.3;85.8
56272;BME280;42177;48.914;18.160;2022-10-16T03:24:35;989.8;;;15.6;83.7
56272;BME280;42177;48.914;18.160;2022-10-16T03:29:35;989.8;;;15.6;83.7
56272;BME280;42177;48.914;18.160;2022-10-16T03:34:35;989.8;;;15.6;83.2
56272;BME280;42177;48.914;18.160;2022-10-16T03:39:35;989.8;;;15.6;83.2
56272;BME280;42177;48.914;18.160;2022-10-16T03:44:35;989.7;;;15.5;85.3
56272;BME280;42177;48.914;18.160;2022-10-16T03:49:35;989.7;;;15.5;85.3
56272;BME280;42177;48.914;18.160;2022-10-16T03:54:35;989.7;;;15.7;83.6
56272;BME280;42177;48.914;18.160;2022-10-16T03:59:35;989.7;;;15.7;83.6
56272;BME280;42177;48.914;18.160;2022-10-16T04:04:35;989.8;;;15.7;82.5
56272;BME280;42177;48.914;18.160;2022-10-16T04:09:35;989.8;;;15.7;82.5
56272;BME280;42177;48.914;18.160;2022-10-16T04:14:35;990;;;15.6;82.8
56272;BME280;42177;48.914;18.160;2022-10-16T04:19:35;990;;;15.6;82.8
56272;BME280;42177;48.914;18.160;2022-10-16T04:24:35;989.8;;;15.6;83.2
56272;BME280;42177;48.914;18.160;2022-10-16T04:29:35;989.8;;;15.6;83.2
56272;BME280;42177;48.914;18.160;2022-10-16T04:34:35;989.6;;;15.6;82.9
56272;BME280;42177;48.914;18.160;2022-10-16T04:39:35;989.6;;;15.6;82.9
56272;BME280;42177;48.914;18.160;2022-10-16T04:44:35;989.8;;;15.7;81.8
56272;BME280;42177;48.914;18.160;2022-10-16T04:49:35;989.8;;;15.7;81.8
56272;BME280;42177;48.914;18.160;2022-10-16T04:54:35;989.9;;;15.7;81.8
56272;BME280;42177;48.914;18.160;2022-10-16T04:59:35;989.9;;;15.7;81.8
56272;BME280;42177;48.914;18.160;2022-10-16T05:04:35;990.2;;;15.7;82.9
56272;BME280;42177;48.914;18.160;2022-10-16T05:09:35;990.2;;;15.7;82.9
56272;BME280;42177;48.914;18.160;2022-10-16T05:14:35;990.3;;;15.8;81.5
56272;BME280;42177;48.914;18.160;2022-10-16T05:19:35;990.3;;;15.8;81.5
56272;BME280;42177;48.914;18.160;2022-10-16T05:24:35;990.5;;;15.6;83.1
56272;BME280;42177;48.914;18.160;2022-10-16T05:29:35;990.5;;;15.6;83.1
56272;BME280;42177;48.914;18.160;2022-10-16T05:34:35;990.4;;;15.8;82.8
56272;BME280;42177;48.914;18.160;2022-10-16T05:39:35;990.4;;;15.8;82.8
56272;BME280;42177;48.914;18.160;2022-10-16T05:44:35;990.3;;;15.8;82.3
56272;BME280;42177;48.914;18.160;2022-10-16T05:49:35;990.3;;;15.8;82.3
56272;BME280;42177;48.914;18.160;2022-10-16T05:54:35;990.5;;;15.8;81.8
56272;BME280;42177;48.914;18.160;2022-10-16T05:59:35;990.5;;;15.8;81.8
56272;BME280;42177;48.914;18.160;2022-10-16T06:04:35;990.7;;;15.6;82.5
56272;BME280;42177;48.914;18.160;2022-10-16T06:09:36;990.7;;;15.6;82.5
56272;BME280;42177;48.914;18.160;2022-10-16T06:14:35;990.9;;;15.9;81.4
56272;BME280;42177;48.914;18.160;2022-10-16T06:19:35;990.9;;;15.9;81.4
56272;BME280;42177;48.914;18.160;2022-10-16T06:24:35;991;;;15.8;82.1
56272;BME280;42177;48.914;18.160;2022-10-16T06:29:35;991;;;15.8;82.1
56272;BME280;42177;48.914;18.160;2022-10-16T06:34:35;991.2;;;15.9;81.3
56272;BME280;42177;48.914;18.160;2022-10-16T06:39:35;991.2;;;15.9;81.3
56272;BME280;42177;48.914;18.160;2022-10-16T06:44:35;991.3;;;16;82.3
56272;BME280;42177;48.914;18.160;2022-10-16T06:49:35;991.3;;;16;82.3
56272;BME280;42177;48.914;18.160;2022-10-16T06:54:35;991.5;;;16;81.8
56272;BME280;42177;48.914;18.160;2022-10-16T06:59:35;991.5;;;16;81.8
56272;BME280;42177;48.914;18.160;2022-10-16T07:04:35;991.5;;;16.1;81
56272;BME280;42177;48.914;18.160;2022-10-16T07:09:35;991.5;;;16.1;81
56272;BME280;42177;48.914;18.160;2022-10-16T07:14:35;991.4;;;16.1;80.9
56272;BME280;42177;48.914;18.160;2022-10-16T07:19:35;991.4;;;16.1;80.9
56272;BME280;42177;48.914;18.160;2022-10-16T07:24:35;991.6;;;16;80.9
56272;BME280;42177;48.914;18.160;2022-10-16T07:29:35;991.6;;;16;80.9
56272;BME280;42177;48.914;18.160;2022-10-16T07:34:35;991.7;;;16.1;80.7
56272;BME280;42177;48.914;18.160;2022-10-16T07:39:35;991.7;;;16.1;80.7
56272;BME280;42177;48.914;18.160;2022-10-16T07:44:35;991.9;;;15.8;82.1
56272;BME280;42177;48.914;18.160;2022-10-16T07:49:35;991.9;;;15.8;82.1
56272;BME280;42177;48.914;18.160;2022-10-16T07:54:35;991.7;;;15.8;82.5
56272;BME280;42177;48.914;18.160;2022-10-16T07:59:35;991.7;;;15.8;82.5
56272;BME280;42177;48.914;18.160;2022-10-16T08:04:35;991.7;;;15.8;82.8
56272;BME280;42177;48.914;18.160;2022-10-16T08:09:35;991.7;;;15.8;82.8
56272;BME280;42177;48.914;18.160;2022-10-16T08:14:35;991.9;;;16.1;81.3
56272;BME280;42177;48.914;18.160;2022-10-16T08:19:35;991.9;;;16.1;81.3
56272;BME280;42177;48.914;18.160;2022-10-16T08:24:35;992.2;;;16.1;81.4
56272;BME280;42177;48.914;18.160;2022-10-16T08:29:35;992.2;;;16.1;81.4
56272;BME280;42177;48.914;18.160;2022-10-16T08:34:35;992.3;;;16.3;80.8
56272;BME280;42177;48.914;18.160;2022-10-16T08:39:35;992.3;;;16.3;80.8
56272;BME280;42177;48.914;18.160;2022-10-16T08:44:39;992.4;;;16.1;80.7
56272;BME280;42177;48.914;18.160;2022-10-16T08:49:35;992.4;;;16.1;80.7
56272;BME280;42177;48.914;18.160;2022-10-16T08:54:36;992.3;;;16.2;80.2
56272;BME280;42177;48.914;18.160;2022-10-16T08:59:35;992.3;;;16.2;80.2
56272;BME280;42177;48.914;18.160;2022-10-16T09:05:11;992;;;16.2;80.5
56272;BME280;42177;48.914;18.160;2022-10-16T09:09:40;992;;;16.2;80.5
56272;BME280;42177;48.914;18.160;2022-10-16T09:14:38;992.1;;;16.6;78.4
56272;BME280;42177;48.914;18.160;2022-10-16T09:19:36;992.1;;;16.6;78.4
56272;BME280;42177;48.914;18.160;2022-10-16T09:24:35;992.3;;;17.3;75.4
56272;BME280;42177;48.914;18.160;2022-10-16T09:29:35;992.3;;;17.3;75.4
56272;BME280;42177;48.914;18.160;2022-10-16T09:34:35;992.3;;;17.3;75.6
56272;BME280;42177;48.914;18.160;2022-10-16T09:39:43;992.3;;;17.3;75.6
56272;BME280;42177;48.914;18.160;2022-10-16T09:44:35;992.6;;;17.4;74.7
56272;BME280;42177;48.914;18.160;2022-10-16T09:49:35;992.6;;;17.4;74.7
56272;BME280;42177;48.914;18.160;2022-10-16T09:54:35;992.5;;;17.4;75.4
56272;BME280;42177;48.914;18.160;2022-10-16T09:59:44;992.5;;;17.4;75.4
56272;BME280;42177;48.914;18.160;2022-10-16T10:04:38;992.5;;;17.3;74.9
56272;BME280;42177;48.914;18.160;2022-10-16T10:09:37;992.5;;;17.3;74.9
56272;BME280;42177;48.914;18.160;2022-10-16T10:14:35;992.5;;;17.2;75.9
56272;BME280;42177;48.914;18.160;2022-10-16T10:19:37;992.5;;;17.2;75.9
56272;BME280;42177;48.914;18.160;2022-10-16T10:24:35;992.7;;;17;77.2
56272;BME280;42177;48.914;18.160;2022-10-16T10:29:38;992.7;;;17;77.2
56272;BME280;42177;48.914;18.160;2022-10-16T10:34:39;992.8;;;17.1;77.1
56272;BME280;42177;48.914;18.160;2022-10-16T10:39:35;992.8;;;17.1;77.1
56272;BME280;42177;48.914;18.160;2022-10-16T10:44:37;992.8;;;17;78
56272;BME280;42177;48.914;18.160;2022-10-16T10:49:39;992.8;;;17;78
56272;BME280;42177;48.914;18.160;2022-10-16T10:54:36;992.7;;;17.1;78.3
56272;BME280;42177;48.914;18.160;2022-10-16T10:59:38;992.7;;;17.1;78.3
56272;BME280;42177;48.914;18.160;2022-10-16T11:04:46;992.7;;;17.1;79.3
56272;BME280;42177;48.914;18.160;2022-10-16T11:09:36;992.7;;;17.1;79.3
56272;BME280;42177;48.914;18.160;2022-10-16T11:14:36;992.8;;;17.4;78.6
56272;BME280;42177;48.914;18.160;2022-10-16T11:19:37;992.8;;;17.4;78.6
56272;BME280;42177;48.914;18.160;2022-10-16T11:24:36;992.7;;;17.4;78.5
56272;BME280;42177;48.914;18.160;2022-10-16T11:29:35;992.7;;;17.4;78.5
56272;BME280;42177;48.914;18.160;2022-10-16T11:34:36;992.6;;;17.6;77.8
56272;BME280;42177;48.914;18.160;2022-10-16T11:39:35;992.6;;;17.6;77.8
56272;BME280;42177;48.914;18.160;2022-10-16T11:44:40;992.7;;;17.7;77.7
56272;BME280;42177;48.914;18.160;2022-10-16T11:49:35;992.7;;;17.7;77.7
56272;BME280;42177;48.914;18.160;2022-10-16T11:54:36;992.5;;;17.8;77.9
56272;BME280;42177;48.914;18.160;2022-10-16T11:59:36;992.5;;;17.8;77.9
56272;BME280;42177;48.914;18.160;2022-10-16T12:04:37;992.4;;;18.2;76.4
56272;BME280;42177;48.914;18.160;2022-10-16T12:09:36;992.4;;;18.2;76.4
56272;BME280;42177;48.914;18.160;2022-10-16T12:14:36;992.5;;;18.5;75
56272;BME280;42177;48.914;18.160;2022-10-16T12:19:35;992.5;;;18.5;75
56272;BME280;42177;48.914;18.160;2022-10-16T12:24:35;992.4;;;18.8;73.6
56272;BME280;42177;48.914;18.160;2022-10-16T12:29:36;992.4;;;18.8;73.6
56272;BME280;42177;48.914;18.160;2022-10-16T12:34:37;992.4;;;18.8;73.4
56272;BME280;42177;48.914;18.160;2022-10-16T12:39:35;992.4;;;18.8;73.4
56272;BME280;42177;48.914;18.160;2022-10-16T12:44:35;992.6;;;19;73.3
56272;BME280;42177;48.914;18.160;2022-10-16T12:49:36;992.6;;;19;73.3
56272;BME280;42177;48.914;18.160;2022-10-16T12:54:36;992.6;;;19.1;72.3
56272;BME280;42177;48.914;18.160;2022-10-16T12:59:38;992.6;;;19.1;72.3
56272;BME280;42177;48.914;18.160;2022-10-16T13:04:40;992.7;;;20;68.1
56272;BME280;42177;48.914;18.160;2022-10-16T13:09:39;992.7;;;20;68.1
56272;BME280;42177;48.914;18.160;2022-10-16T13:14:46;992.6;;;20.3;64.7
56272;BME280;42177;48.914;18.160;2022-10-16T13:19:37;992.6;;;20.3;64.7
56272;BME280;42177;48.914;18.160;2022-10-16T13:24:41;992.7;;;20.1;66.1
56272;BME280;42177;48.914;18.160;2022-10-16T13:29:35;992.7;;;20.1;66.1
56272;BME280;42177;48.914;18.160;2022-10-16T13:34:41;992.5;;;20.9;64.3
56272;BME280;42177;48.914;18.160;2022-10-16T13:39:35;992.5;;;20.9;64.3
56272;BME280;42177;48.914;18.160;2022-10-16T13:44:36;992.5;;;21.2;59.9
56272;BME280;42177;48.914;18.160;2022-10-16T13:49:35;992.5;;;21.2;59.9
56272;BME280;42177;48.914;18.160;2022-10-16T13:54:35;992.4;;;22.2;56.1
56272;BME280;42177;48.914;18.160;2022-10-16T13:59:35;992.4;;;22.2;56.1
56272;BME280;42177;48.914;18.160;2022-10-16T14:04:37;992.8;;;21.8;54.7
56272;BME280;42177;48.914;18.160;2022-10-16T14:09:35;992.8;;;21.8;54.7
56272;BME280;42177;48.914;18.160;2022-10-16T14:14:35;992.6;;;21.3;56.3
56272;BME280;42177;48.914;18.160;2022-10-16T14:19:35;992.6;;;21.3;56.3
56272;BME280;42177;48.914;18.160;2022-10-16T14:24:35;992.8;;;20.6;58.3
56272;BME280;42177;48.914;18.160;2022-10-16T14:29:35;992.8;;;20.6;58.3
56272;BME280;42177;48.914;18.160;2022-10-16T14:34:36;992.8;;;19.9;62.7
56272;BME280;42177;48.914;18.160;2022-10-16T14:39:35;992.8;;;19.9;62.7
56272;BME280;42177;48.914;18.160;2022-10-16T14:44:35;993;;;19.4;64.5
56272;BME280;42177;48.914;18.160;2022-10-16T14:49:35;993;;;19.4;64.5
56272;BME280;42177;48.914;18.160;2022-10-16T14:54:35;993;;;19.3;66.2
56272;BME280;42177;48.914;18.160;2022-10-16T14:59:36;993;;;19.3;66.2
56272;BME280;42177;48.914;18.160;2022-10-16T15:04:35;992.9;;;19;67.3
56272;BME280;42177;48.914;18.160;2022-10-16T15:09:35;992.9;;;19;67.3
56272;BME280;42177;48.914;18.160;2022-10-16T15:14:35;993.1;;;18.7;68.6
56272;BME280;42177;48.914;18.160;2022-10-16T15:19:35;993.1;;;18.7;68.6
56272;BME280;42177;48.914;18.160;2022-10-16T15:24:35;993.1;;;18.9;69.8
56272;BME280;42177;48.914;18.160;2022-10-16T15:29:35;993.1;;;18.9;69.8
56272;BME280;42177;48.914;18.160;2022-10-16T15:34:35;993.3;;;18.9;69.5
56272;BME280;42177;48.914;18.160;2022-10-16T15:39:35;993.3;;;18.9;69.5
56272;BME280;42177;48.914;18.160;2022-10-16T15:44:35;993.3;;;18.3;72.5
56272;BME280;42177;48.914;18.160;2022-10-16T15:49:35;993.3;;;18.3;72.5
56272;BME280;42177;48.914;18.160;2022-10-16T15:54:35;993.4;;;18.1;74.1
56272;BME280;42177;48.914;18.160;2022-10-16T15:59:35;993.4;;;18.1;74.1
56272;BME280;42177;48.914;18.160;2022-10-16T16:04:35;993.4;;;17.7;76
56272;BME280;42177;48.914;18.160;2022-10-16T16:09:35;993.4;;;17.7;76
56272;BME280;42177;48.914;18.160;2022-10-16T16:14:35;993.5;;;17.5;76.7
56272;BME280;42177;48.914;18.160;2022-10-16T16:19:35;993.5;;;17.5;76.7
56272;BME280;42177;48.914;18.160;2022-10-16T16:24:35;993.7;;;17.4;76.8
56272;BME280;42177;48.914;18.160;2022-10-16T16:29:35;993.7;;;17.4;76.8
56272;BME280;42177;48.914;18.160;2022-10-16T16:34:35;993.7;;;17.4;76.4
56272;BME280;42177;48.914;18.160;2022-10-16T16:39:35;993.7;;;17.4;76.4
56272;BME280;42177;48.914;18.160;2022-10-16T16:44:35;993.7;;;17.3;77
56272;BME280;42177;48.914;18.160;2022-10-16T16:49:35;993.7;;;17.3;77
56272;BME280;42177;48.914;18.160;2022-10-16T16:54:35;993.6;;;17.1;77.6
56272;BME280;42177;48.914;18.160;2022-10-16T16:59:35;993.6;;;17.1;77.6
56272;BME280;42177;48.914;18.160;2022-10-16T17:04:35;993.7;;;17.2;77.3
56272;BME280;42177;48.914;18.160;2022-10-16T17:09:35;993.7;;;17.2;77.3
56272;BME280;42177;48.914;18.160;2022-10-16T17:14:35;993.9;;;17;77.6
56272;BME280;42177;48.914;18.160;2022-10-16T17:19:35;993.9;;;17;77.6
56272;BME280;42177;48.914;18.160;2022-10-16T17:24:35;994.2;;;17.1;77.3
56272;BME280;42177;48.914;18.160;2022-10-16T17:29:35;994.2;;;17.1;77.3
56272;BME280;42177;48.914;18.160;2022-10-16T17:34:35;994.4;;;17;77.9
56272;BME280;42177;48.914;18.160;2022-10-16T17:39:35;994.4;;;17;77.9
56272;BME280;42177;48.914;18.160;2022-10-16T17:44:35;994.5;;;16.9;78.6
56272;BME280;42177;48.914;18.160;2022-10-16T17:49:35;994.5;;;16.9;78.6
56272;BME280;42177;48.914;18.160;2022-10-16T17:54:35;994.6;;;16.8;79.2
56272;BME280;42177;48.914;18.160;2022-10-16T17:59:35;994.6;;;16.8;79.2
56272;BME280;42177;48.914;18.160;2022-10-16T18:04:35;994.8;;;16.6;80.1
56272;BME280;42177;48.914;18.160;2022-10-16T18:09:35;994.8;;;16.6;80.1
56272;BME280;42177;48.914;18.160;2022-10-16T18:14:35;994.9;;;16.5;81
56272;BME280;42177;48.914;18.160;2022-10-16T18:19:35;994.9;;;16.5;81
56272;BME280;42177;48.914;18.160;2022-10-16T18:24:35;994.9;;;16.4;81.8
56272;BME280;42177;48.914;18.160;2022-10-16T18:29:35;994.9;;;16.4;81.8
56272;BME280;42177;48.914;18.160;2022-10-16T18:34:35;995.1;;;16.2;83.7
56272;BME280;42177;48.914;18.160;2022-10-16T18:39:35;995.1;;;16.2;83.7
56272;BME280;42177;48.914;18.160;2022-10-16T18:44:35;995.1;;;16.2;83.5
56272;BME280;42177;48.914;18.160;2022-10-16T18:49:35;995.1;;;16.2;83.5
56272;BME280;42177;48.914;18.160;2022-10-16T18:54:35;995.2;;;16.2;83.5
56272;BME280;42177;48.914;18.160;2022-10-16T18:59:35;995.2;;;16.2;83.5
56272;BME280;42177;48.914;18.160;2022-10-16T19:04:35;995.2;;;16.1;83.6
56272;BME280;42177;48.914;18.160;2022-10-16T19:09:35;995.2;;;16.1;83.6
56272;BME280;42177;48.914;18.160;2022-10-16T19:14:35;995.3;;;16.1;83.3
56272;BME280;42177;48.914;18.160;2022-10-16T19:19:35;995.3;;;16.1;83.3
56272;BME280;42177;48.914;18.160;2022-10-16T19:24:36;995.4;;;16.1;82.9
56272;BME280;42177;48.914;18.160;2022-10-16T19:29:35;995.4;;;16.1;82.9
56272;BME280;42177;48.914;18.160;2022-10-16T19:34:35;995.4;;;16.1;82.7
56272;BME280;42177;48.914;18.160;2022-10-16T19:39:35;995.4;;;16.1;82.7
56272;BME280;42177;48.914;18.160;2022-10-16T19:44:35;995.5;;;16.1;81.9
56272;BME280;42177;48.914;18.160;2022-10-16T19:49:35;995.5;;;16.1;81.9
56272;BME280;42177;48.914;18.160;2022-10-16T19:54:35;995.7;;;16.1;82.4
56272;BME280;42177;48.914;18.160;2022-10-16T19:59:35;995.7;;;16.1;82.4
56272;BME280;42177;48.914;18.160;2022-10-16T20:04:35;995.7;;;16.1;82.2
56272;BME280;42177;48.914;18.160;2022-10-16T20:09:35;995.7;;;16.1;82.2
56272;BME280;42177;48.914;18.160;2022-10-16T20:14:35;995.9;;;16.1;82
56272;BME280;42177;48.914;18.160;2022-10-16T20:19:35;995.9;;;16.1;82
56272;BME280;42177;48.914;18.160;2022-10-16T20:24:35;996;;;16;81.2
56272;BME280;42177;48.914;18.160;2022-10-16T20:29:35;996;;;16;81.2
56272;BME280;42177;48.914;18.160;2022-10-16T20:34:35;996.2;;;16;81.2
56272;BME280;42177;48.914;18.160;2022-10-16T20:39:35;996.2;;;16;81.2
56272;BME280;42177;48.914;18.160;2022-10-16T20:44:35;996.2;;;16.2;80.5
56272;BME280;42177;48.914;18.160;2022-10-16T20:49:35;996.2;;;16.2;80.5
56272;BME280;42177;48.914;18.160;2022-10-16T20:54:35;996.2;;;16;81.7
56272;BME280;42177;48.914;18.160;2022-10-16T20:59:35;996.2;;;16;81.7
56272;BME280;42177;48.914;18.160;2022-10-16T21:04:35;996.3;;;15.9;81.9
56272;BME280;42177;48.914;18.160;2022-10-16T21:09:35;996.3;;;15.9;81.9
56272;BME280;42177;48.914;18.160;2022-10-16T21:14:35;996.4;;;15.9;81.2
56272;BME280;42177;48.914;18.160;2022-10-16T21:19:35;996.4;;;15.9;81.2
56272;BME280;42177;48.914;18.160;2022-10-16T21:24:35;996.5;;;15.9;82.7
56272;BME280;42177;48.914;18.160;2022-10-16T21:29:35;996.5;;;15.9;82.7
56272;BME280;42177;48.914;18.160;2022-10-16T21:34:35;996.4;;;15.8;82.3
56272;BME280;42177;48.914;18.160;2022-10-16T21:39:35;996.4;;;15.8;82.3
56272;BME280;42177;48.914;18.160;2022-10-16T21:44:35;996.5;;;15.8;82.6
56272;BME280;42177;48.914;18.160;2022-10-16T21:49:35;996.5;;;15.8;82.6
56272;BME280;42177;48.914;18.160;2022-10-16T21:54:35;996.6;;;15.6;83.1
56272;BME280;42177;48.914;18.160;2022-10-16T21:59:35;996.6;;;15.6;83.1
56272;BME280;42177;48.914;18.160;2022-10-16T22:04:35;996.6;;;15.8;82.1
56272;BME280;42177;48.914;18.160;2022-10-16T22:09:35;996.6;;;15.8;82.1
56272;BME280;42177;48.914;18.160;2022-10-16T22:14:35;996.7;;;15.6;82.3
56272;BME280;42177;48.914;18.160;2022-10-16T22:19:35;996.7;;;15.6;82.3
56272;BME280;42177;48.914;18.160;2022-10-16T22:24:35;996.8;;;15.5;83.2
56272;BME280;42177;48.914;18.160;2022-10-16T22:29:35;996.8;;;15.5;83.2
56272;BME280;42177;48.914;18.160;2022-10-16T22:34:35;996.8;;;15.6;82.8
56272;BME280;42177;48.914;18.160;2022-10-16T22:39:35;996.8;;;15.6;82.8
56272;BME280;42177;48.914;18.160;2022-10-16T22:44:35;996.8;;;15.1;85.3
56272;BME280;42177;48.914;18.160;2022-10-16T22:49:35;996.8;;;15.1;85.3
56272;BME280;42177;48.914;18.160;2022-10-16T22:54:35;996.7;;;15;85.8
56272;BME280;42177;48.914;18.160;2022-10-16T22:59:35;996.7;;;15;85.8
56272;BME280;42177;48.914;18.160;2022-10-16T23:04:35;996.8;;;15.1;84.9
56272;BME280;42177;48.914;18.160;2022-10-16T23:09:35;996.8;;;15.1;84.9
56272;BME280;42177;48.914;18.160;2022-10-16T23:14:35;996.8;;;15;84.7
56272;BME280;42177;48.914;18.160;2022-10-16T23:19:35;996.8;;;15;84.7
56272;BME280;42177;48.914;18.160;2022-10-16T23:24:35;997;;;15.2;83.8
56272;BME280;42177;48.914;18.160;2022-10-16T23:29:35;997;;;15.2;83.8
56272;BME280;42177;48.914;18.160;2022-10-16T23:34:35;997;;;15.1;83.8
56272;BME280;42177;48.914;18.160;2022-10-16T23:39:35;997;;;15.1;83.8
56272;BME280;42177;48.914;18.160;2022-10-16T23:44:35;997;;;14.7;88.2
56272;BME280;42177;48.914;18.160;2022-10-16T23:49:35;997;;;14.7;88.2
56272;BME280;42177;48.914;18.160;2022-10-16T23:54:35;997.1;;;15.2;84.1
56272;BME280;42177;48.914;18.160;2022-10-16T23:59:35;997.1;;;15.2;84.1
